Bookmark and Share
Track history (hours):
 

Spaceon02064

Last reported at 2014-Apr-20 13:10 UTC. Time now 2014-Apr-21 07:33 UTC.
Position N 32°01' E 120°34'.

Length 6 m.

Type: Ship. MMSI: 200902064.

NotesDate/timePositionNaut miles runAvg speedWind from/ knotsBaromVisibWave heightAir tempDewpointWater temp
2014-Apr-20 13:10N 32°01' E 120°34'5 7.3
2014-Apr-20 12:29N 32°02' E 120°28'6 6.5
2014-Apr-20 11:33N 31°59' E 120°22'6 0.2
2014-Apr-18 22:15N 31°57' E 120°15'10 0.9
2014-Apr-18 11:32N 31°59' E 120°27'5 4.6
2014-Apr-18 10:30N 32°02' E 120°31'15 0.6
2014-Apr-17 10:06N 31°56' E 120°15'5 9.3
2014-Apr-17 09:33N 31°59' E 120°20'8 8.2
2014-Apr-17 08:33N 32°02' E 120°29'14818.5
2014-Apr-17 00:33N 29°58' E 122°03'7 1.2
2014-Apr-16 18:31N 29°52' E 122°08'9 0.3
2014-Apr-15 15:30N 29°60' E 122°01'8789.9
2014-Apr-15 14:32N 31°22' E 121°30'941337.8
2014-Apr-15 14:28N 29°54' E 122°08'156 3.8
2014-Apr-13 21:09N 31°58' E 120°18'5 7.4
2014-Apr-13 20:24N 32°01' E 120°24'44336.3
2014-Apr-13 08:13N 24°47' E 118°46'0 0.0
2014-Apr-13 07:25N 24°47' E 118°46'441114.5
2014-Apr-13 03:33N 31°59' E 120°27'0 0.0
2014-Apr-13 02:33N 31°59' E 120°27'0 0.0
2014-Apr-13 01:33N 31°59' E 120°27'0 0.1
2014-Apr-13 00:33N 31°59' E 120°27'0 0.1
2014-Apr-12 23:33N 31°59' E 120°27'4385912.2
2014-Apr-12 23:28N 24°48' E 118°53'438479.3
2014-Apr-12 22:33N 31°59' E 120°27'0 0.2
2014-Apr-12 21:18N 31°59' E 120°27'0 0.0
2014-Apr-12 20:33N 31°59' E 120°27'0 0.0
2014-Apr-12 19:33N 31°59' E 120°27'0 0.0
2014-Apr-12 18:24N 31°59' E 120°27'0 0.0
2014-Apr-12 17:22N 31°59' E 120°27'4 2.1
2014-Apr-12 15:33N 32°02' E 120°30'5 4.5
2014-Apr-12 14:33N 32°01' E 120°35'9 4.4
2014-Apr-12 12:31N 32°01' E 120°45'4 4.3
2014-Apr-12 11:31N 31°60' E 120°50'491479.3
2014-Apr-12 10:30N 24°11' E 118°03'3 2.8
2014-Apr-12 09:31N 24°09' E 118°01'484478.0
2014-Apr-12 08:30N 32°01' E 119°58'6 5.8
2014-Apr-12 07:26N 31°58' E 120°05'6 6.3
2014-Apr-12 06:33N 31°57' E 120°11'6 6.2
2014-Apr-12 05:34N 31°58' E 120°18'6 6.1
2014-Apr-12 04:33N 32°01' E 120°25'6 5.6
2014-Apr-12 03:33N 32°02' E 120°31'59441.6
2014-Apr-12 03:25N 31°28' E 121°28'5463.4
2014-Apr-12 02:33N 32°00' E 120°37'5910600.0
2014-Apr-12 02:33N 31°23' E 121°30'2 1.9
2014-Apr-12 01:33N 31°22' E 121°28'0 0.0
2014-Apr-12 00:33N 31°22' E 121°28'0 0.0
2014-Apr-11 23:33N 31°22' E 121°28'0 0.0
2014-Apr-11 22:32N 31°22' E 121°28'0 0.0
2014-Apr-11 21:33N 31°22' E 121°28'0 0.0
2014-Apr-11 20:33N 31°22' E 121°28'571139.0
2014-Apr-11 20:30N 32°00' E 120°39'5759.9
2014-Apr-11 19:33N 31°22' E 121°28'0 0.0
2014-Apr-11 18:33N 31°22' E 121°28'54159.3
2014-Apr-11 18:13N 32°01' E 120°45'5380.5
2014-Apr-11 17:33N 31°22' E 121°28'502047.0
2014-Apr-11 17:31N 31°60' E 120°50'5049.6
2014-Apr-11 16:31N 31°22' E 121°28'0 0.0
2014-Apr-11 15:33N 31°22' E 121°28'0 0.0
2014-Apr-11 14:33N 31°22' E 121°28'0 0.0
2014-Apr-11 13:32N 31°22' E 121°28'0 0.0
2014-Apr-11 12:33N 31°22' E 121°28'0 0.0
2014-Apr-11 11:33N 31°22' E 121°28'0 0.0
2014-Apr-11 10:33N 31°22' E 121°28'0 0.0
2014-Apr-11 09:33N 31°22' E 121°28'0 0.0
2014-Apr-11 08:33N 31°22' E 121°28'61987.2
2014-Apr-11 08:33N 31°27' E 121°28'6 5.6
2014-Apr-11 07:33N 31°22' E 121°28'4421.3
2014-Apr-11 07:33N 31°25' E 121°31'4 4.3
2014-Apr-11 06:33N 31°22' E 121°28'1275.8
2014-Apr-11 06:33N 31°22' E 121°28'4743119.6
2014-Apr-11 06:24N 24°06' E 117°58'6 7.5
2014-Apr-11 05:33N 24°11' E 118°02'467210372.2
2014-Apr-11 05:33N 31°22' E 121°28'2678.9
2014-Apr-11 05:33N 31°21' E 121°26'0 0.0
2014-Apr-11 04:33N 31°21' E 121°26'459150342.4
2014-Apr-11 04:33N 24°16' E 118°09'461462.1
2014-Apr-11 03:33N 31°22' E 121°28'22715.6
2014-Apr-11 03:33N 31°21' E 121°26'721.2
2014-Apr-11 03:12N 31°17' E 121°34'710.3
2014-Apr-11 02:33N 31°22' E 121°28'298.7
2014-Apr-11 02:32N 31°21' E 121°26'44150.3
2014-Apr-11 02:14N 31°17' E 122°18'4363.0
2014-Apr-11 01:33N 31°22' E 121°28'290.9
2014-Apr-11 01:32N 31°21' E 121°26'63999.0
2014-Apr-11 01:29N 31°60' E 120°27'6469.5
2014-Apr-11 00:33N 31°22' E 121°28'227.0
2014-Apr-11 00:30N 31°21' E 121°26'2 1.6
2014-Apr-10 23:32N 31°22' E 121°28'730.5
2014-Apr-10 23:19N 31°17' E 121°34'7 8.4
2014-Apr-10 22:32N 31°22' E 121°28'716.2
2014-Apr-10 22:06N 31°15' E 121°31'713.4
2014-Apr-10 21:33N 31°22' E 121°28'9472.1
2014-Apr-10 21:32N 31°13' E 121°30'9 8.4
2014-Apr-10 20:31N 31°21' E 121°26'0 0.3
2014-Apr-10 19:33N 31°21' E 121°26'0 0.0
2014-Apr-10 18:33N 31°21' E 121°26'0 0.0
2014-Apr-10 17:29N 31°21' E 121°26'0 0.0
2014-Apr-10 16:30N 31°21' E 121°26'0 0.0
2014-Apr-10 15:28N 31°21' E 121°26'0 0.0
2014-Apr-10 14:19N 31°21' E 121°26'1 0.7
2014-Apr-10 13:32N 31°21' E 121°26'112.6
2014-Apr-10 13:29N 31°21' E 121°26'  

Dump ship's entire track history

sailing weather and tide predictions

Spaceon02064 — ASD — position and weather